createdAt,value
2022-08-31T00:01:52.942Z,5.40
2022-08-31T00:04:20.322Z,7.53
2022-08-31T00:06:53.912Z,4.73
2022-08-31T00:09:21.336Z,8.90
2022-08-31T00:11:48.181Z,6.83
2022-08-31T00:14:16.181Z,6.23
2022-08-31T00:16:45.121Z,5.10
2022-08-31T00:19:12.499Z,5.33
2022-08-31T00:21:39.572Z,6.87
2022-08-31T00:24:06.779Z,9.27
2022-08-31T00:26:33.663Z,7.13
2022-08-31T00:29:00.680Z,7.10
2022-08-31T00:31:27.861Z,9.10
2022-08-31T00:33:55.627Z,7.57
2022-08-31T00:36:24.010Z,6.47
2022-08-31T00:38:52.259Z,5.50
2022-08-31T00:41:24.412Z,9.40
2022-08-31T00:43:53.609Z,5.40
2022-08-31T00:46:22.837Z,9.97
2022-08-31T00:48:57.869Z,9.13
2022-08-31T00:51:25.429Z,6.93
2022-08-31T00:53:52.376Z,9.97
2022-08-31T00:56:19.530Z,5.83
2022-08-31T00:58:51.346Z,6.30
2022-08-31T01:01:22.605Z,8.13
2022-08-31T01:03:49.584Z,8.17
2022-08-31T01:06:18.091Z,5.67
2022-08-31T01:08:46.099Z,8.37
2022-08-31T01:11:13.403Z,7.30
2022-08-31T01:13:40.547Z,8.70
2022-08-31T01:16:10.164Z,7.30
2022-08-31T01:18:38.366Z,7.90
2022-08-31T01:21:11.182Z,7.97
2022-08-31T01:23:43.160Z,10.37
2022-08-31T01:26:12.235Z,8.60
2022-08-31T01:28:39.120Z,10.07
2022-08-31T01:31:06.197Z,9.57
2022-08-31T01:33:35.768Z,16.43
2022-08-31T01:36:03.345Z,6.80
2022-08-31T01:38:31.524Z,8.37
2022-08-31T01:41:02.331Z,8.90
2022-08-31T01:43:31.486Z,7.13
2022-08-31T01:45:58.531Z,7.77
2022-08-31T01:48:26.123Z,6.43
2022-08-31T01:50:53.097Z,9.87
2022-08-31T01:53:20.218Z,9.80
2022-08-31T01:55:47.297Z,9.07
2022-08-31T01:58:14.516Z,8.67
2022-08-31T02:01:32.975Z,7.33
2022-08-31T02:03:53.550Z,14.20
2022-08-31T02:06:24.964Z,11.50
2022-08-31T02:08:51.799Z,6.63
2022-08-31T02:11:18.788Z,7.63
2022-08-31T02:13:46.060Z,8.37
2022-08-31T02:16:15.033Z,9.70
2022-08-31T02:18:42.229Z,6.67
2022-08-31T02:21:09.156Z,8.37
2022-08-31T02:23:36.095Z,8.13
2022-08-31T02:26:02.964Z,8.93
2022-08-31T02:28:30.192Z,11.43
2022-08-31T02:30:57.097Z,9.87
2022-08-31T02:33:25.251Z,13.67
2022-08-31T02:35:53.706Z,9.33
2022-08-31T02:38:23.152Z,8.57
2022-08-31T02:40:51.617Z,10.60
2022-08-31T02:43:24.294Z,7.27
2022-08-31T02:45:54.176Z,9.10
2022-08-31T02:48:26.314Z,11.67
2022-08-31T02:50:53.800Z,12.40
2022-08-31T02:53:22.623Z,9.07
2022-08-31T02:55:50.273Z,8.47
2022-08-31T02:58:21.961Z,8.47
2022-08-31T03:00:51.157Z,9.70
2022-08-31T03:03:18.777Z,7.07
2022-08-31T03:05:46.134Z,8.87
2022-08-31T03:08:13.464Z,9.47
2022-08-31T03:10:43.258Z,8.20
2022-08-31T03:13:11.797Z,13.80
2022-08-31T03:15:39.286Z,12.67
2022-08-31T03:18:06.838Z,6.87
2022-08-31T03:20:34.928Z,8.20
2022-08-31T03:23:02.114Z,9.40
2022-08-31T03:25:31.189Z,9.40
2022-08-31T03:27:58.268Z,7.70
2022-08-31T03:30:27.503Z,7.87
2022-08-31T03:33:02.953Z,8.67
2022-08-31T03:35:32.447Z,8.10
2022-08-31T03:37:59.775Z,8.07
2022-08-31T03:40:26.662Z,6.67
2022-08-31T03:42:53.815Z,8.87
2022-08-31T03:45:20.809Z,10.87
2022-08-31T03:47:47.779Z,11.13
2022-08-31T03:50:16.356Z,10.43
2022-08-31T03:52:55.009Z,17.63
2022-08-31T03:55:23.072Z,9.77
2022-08-31T03:57:51.639Z,9.40
2022-08-31T04:00:19.142Z,9.83
2022-08-31T04:02:53.434Z,7.57
2022-08-31T04:05:42.093Z,11.80
2022-08-31T04:08:41.279Z,8.10
2022-08-31T04:11:40.466Z,8.53
2022-08-31T04:14:32.138Z,7.03
2022-08-31T04:17:21.878Z,12.80
2022-08-31T04:19:55.975Z,9.17
2022-08-31T04:22:33.666Z,8.53
2022-08-31T04:25:21.574Z,9.57
2022-08-31T04:27:50.766Z,6.33
2022-08-31T04:30:18.028Z,7.13
2022-08-31T04:32:44.987Z,9.73
2022-08-31T04:35:12.345Z,7.63
2022-08-31T04:37:45.965Z,10.97
2022-08-31T04:40:19.936Z,10.57
2022-08-31T04:42:49.631Z,13.00
2022-08-31T04:45:20.107Z,10.33
2022-08-31T04:47:47.225Z,8.83
2022-08-31T04:50:14.330Z,8.93
2022-08-31T04:53:03.416Z,8.27
2022-08-31T04:55:31.618Z,10.03
2022-08-31T04:57:58.724Z,9.90
2022-08-31T05:00:26.125Z,12.43
2022-08-31T05:03:13.294Z,11.80
2022-08-31T05:05:41.413Z,8.10
2022-08-31T05:08:08.571Z,7.90
2022-08-31T05:10:35.900Z,9.77
2022-08-31T05:13:04.007Z,7.17
2022-08-31T05:15:33.401Z,10.50
2022-08-31T05:18:01.214Z,7.93
2022-08-31T05:20:31.969Z,13.10
2022-08-31T05:22:58.986Z,8.23
2022-08-31T05:25:26.365Z,8.07
2022-08-31T05:27:55.132Z,12.50
2022-08-31T05:30:22.624Z,7.43
2022-08-31T05:33:09.511Z,10.17
2022-08-31T05:35:37.775Z,9.10
2022-08-31T05:38:04.820Z,6.53
2022-08-31T05:40:31.847Z,7.37
2022-08-31T05:42:59.720Z,7.40
2022-08-31T05:45:27.126Z,7.20
2022-08-31T05:47:54.565Z,9.43
2022-08-31T05:50:21.519Z,7.00
2022-08-31T05:52:49.426Z,8.13
2022-08-31T05:55:16.656Z,7.03
2022-08-31T05:57:43.674Z,8.33
2022-08-31T06:00:11.183Z,5.90
2022-08-31T06:02:44.115Z,5.23
2022-08-31T06:05:14.167Z,5.23
2022-08-31T06:07:42.373Z,4.13
2022-08-31T06:10:13.141Z,4.43
2022-08-31T06:12:42.664Z,3.40
2022-08-31T06:15:11.005Z,6.20
2022-08-31T06:17:38.041Z,5.00
2022-08-31T06:20:06.444Z,5.00
2022-08-31T06:22:36.764Z,4.47
2022-08-31T06:25:08.541Z,5.97
2022-08-31T06:27:38.906Z,6.03
2022-08-31T06:30:08.151Z,5.53
2022-08-31T06:32:35.078Z,5.73
2022-08-31T06:35:04.251Z,7.77
2022-08-31T06:37:57.481Z,7.20
2022-08-31T06:40:42.682Z,7.37
2022-08-31T06:43:38.839Z,5.57
2022-08-31T06:46:19.760Z,6.10
2022-08-31T06:49:03.479Z,7.00
2022-08-31T06:51:36.679Z,6.40
2022-08-31T06:54:27.581Z,6.80
2022-08-31T06:57:15.098Z,5.00
2022-08-31T07:00:00.867Z,4.67
2022-08-31T07:02:37.339Z,6.27
2022-08-31T07:05:05.227Z,7.17
2022-08-31T07:07:32.836Z,9.10
2022-08-31T07:10:00.882Z,4.93
2022-08-31T07:12:28.378Z,7.57
2022-08-31T07:14:55.476Z,4.87
2022-08-31T07:17:24.397Z,6.87
2022-08-31T07:19:51.645Z,8.43
2022-08-31T07:22:19.646Z,5.80
2022-08-31T07:24:50.850Z,7.97
2022-08-31T07:27:18.761Z,7.47
2022-08-31T07:30:04.236Z,7.90
2022-08-31T07:32:33.752Z,9.87
2022-08-31T07:35:01.708Z,5.03
2022-08-31T07:37:50.298Z,6.97
2022-08-31T07:40:39.601Z,7.67
2022-08-31T07:43:11.121Z,7.40
2022-08-31T07:45:39.420Z,6.63
2022-08-31T07:48:07.913Z,7.93
2022-08-31T07:50:48.553Z,6.30
2022-08-31T07:53:29.733Z,7.47
2022-08-31T07:56:18.141Z,6.43
2022-08-31T07:58:48.443Z,7.23
2022-08-31T08:01:15.915Z,4.70
2022-08-31T08:03:44.297Z,5.03
2022-08-31T08:06:43.688Z,6.20
2022-08-31T08:09:24.337Z,8.03
2022-08-31T08:12:22.484Z,7.13
2022-08-31T08:15:08.380Z,6.00
2022-08-31T08:17:55.446Z,5.83
2022-08-31T08:20:37.210Z,4.47
2022-08-31T08:23:14.481Z,4.03
2022-08-31T08:26:09.695Z,6.43
2022-08-31T08:29:00.597Z,4.30
2022-08-31T08:31:29.234Z,4.17
2022-08-31T08:33:57.589Z,5.67
2022-08-31T08:36:24.882Z,2.13
2022-08-31T08:38:54.265Z,7.40
2022-08-31T08:41:26.871Z,5.50
2022-08-31T08:43:57.418Z,4.47
2022-08-31T08:46:44.448Z,4.00
2022-08-31T08:49:21.182Z,6.77
2022-08-31T08:51:51.975Z,8.50
2022-08-31T08:54:25.828Z,5.57
2022-08-31T08:56:53.377Z,4.73
2022-08-31T08:59:20.763Z,4.57
2022-08-31T09:01:50.277Z,5.83
2022-08-31T09:04:22.349Z,3.10
2022-08-31T09:07:34.287Z,3.23
2022-08-31T09:10:21.061Z,2.20
2022-08-31T09:13:09.950Z,6.60
2022-08-31T09:15:37.277Z,9.57
2022-08-31T09:18:10.621Z,4.30
2022-08-31T09:20:38.308Z,7.03
2022-08-31T09:23:08.169Z,7.43
2022-08-31T09:25:52.347Z,4.33
2022-08-31T09:28:45.819Z,2.97
2022-08-31T09:31:34.888Z,3.77
2022-08-31T09:34:02.423Z,4.53
2022-08-31T09:36:33.937Z,3.70
2022-08-31T09:39:16.508Z,4.03
2022-08-31T09:41:44.164Z,7.80
2022-08-31T09:44:30.860Z,3.27
2022-08-31T09:47:01.216Z,3.73
2022-08-31T09:49:29.556Z,4.27
2022-08-31T09:52:16.649Z,4.07
2022-08-31T09:55:12.068Z,2.73
2022-08-31T09:57:50.765Z,2.80
2022-08-31T10:00:39.184Z,2.10
2022-08-31T10:03:09.177Z,4.00
2022-08-31T10:05:40.783Z,5.40
2022-08-31T10:08:13.069Z,3.20
2022-08-31T10:10:43.924Z,2.50
2022-08-31T10:13:15.795Z,2.40
2022-08-31T10:15:44.707Z,2.20
2022-08-31T10:18:22.819Z,3.17
2022-08-31T10:20:56.212Z,1.13
2022-08-31T10:23:27.416Z,3.00
2022-08-31T10:25:57.708Z,4.40
2022-08-31T10:28:32.357Z,3.93
2022-08-31T10:31:02.422Z,1.83
2022-08-31T10:33:55.767Z,4.97
2022-08-31T10:36:27.935Z,2.90
2022-08-31T10:38:57.169Z,5.60
2022-08-31T10:41:30.575Z,1.97
2022-08-31T10:44:17.214Z,3.80
2022-08-31T10:46:46.937Z,7.73
2022-08-31T10:49:14.072Z,3.80
2022-08-31T10:51:51.191Z,2.60
2022-08-31T10:54:28.862Z,2.57
2022-08-31T10:57:00.817Z,6.03
2022-08-31T10:59:44.671Z,2.73
2022-08-31T11:02:16.876Z,1.53
2022-08-31T11:04:43.945Z,4.50
2022-08-31T11:07:25.297Z,2.13
2022-08-31T11:10:22.479Z,1.60
2022-08-31T11:12:57.480Z,3.27
2022-08-31T11:15:30.859Z,2.87
2022-08-31T11:18:16.734Z,5.80
2022-08-31T11:20:51.737Z,3.63
2022-08-31T11:23:18.795Z,4.17
2022-08-31T11:26:05.095Z,3.03
2022-08-31T11:28:36.743Z,3.93
2022-08-31T11:31:08.000Z,5.53
2022-08-31T11:33:36.444Z,2.23
2022-08-31T11:36:10.459Z,3.20
2022-08-31T11:38:40.396Z,2.90
2022-08-31T11:41:11.284Z,2.37
2022-08-31T11:43:45.820Z,4.23
2022-08-31T11:46:33.078Z,2.00
2022-08-31T11:49:00.714Z,4.03
2022-08-31T11:51:37.261Z,3.10
2022-08-31T11:54:15.010Z,2.20
2022-08-31T11:56:44.536Z,6.60
2022-08-31T11:59:35.689Z,3.83
2022-08-31T12:02:21.028Z,3.10
2022-08-31T12:04:58.819Z,2.70
2022-08-31T12:07:31.855Z,2.53
2022-08-31T12:10:17.908Z,4.43
2022-08-31T12:12:44.784Z,2.80
2022-08-31T12:15:30.370Z,1.93
2022-08-31T12:18:17.146Z,1.90
2022-08-31T12:21:21.454Z,1.63
2022-08-31T12:23:59.396Z,5.60
2022-08-31T12:26:35.787Z,1.53
2022-08-31T12:29:08.854Z,2.57
2022-08-31T12:31:37.634Z,3.97
2022-08-31T12:34:08.195Z,2.80
2022-08-31T12:36:36.429Z,3.50
2022-08-31T12:39:08.378Z,4.27
2022-08-31T12:41:37.510Z,1.83
2022-08-31T12:44:04.487Z,2.67
2022-08-31T12:46:44.277Z,2.90
2022-08-31T12:49:11.213Z,1.70
2022-08-31T12:51:41.103Z,7.37
2022-08-31T12:54:26.376Z,2.13
2022-08-31T12:57:11.912Z,2.67
2022-08-31T13:00:00.596Z,1.63
2022-08-31T13:02:29.511Z,3.30
2022-08-31T13:04:57.504Z,1.67
2022-08-31T13:07:29.769Z,2.27
2022-08-31T13:10:13.920Z,2.63
2022-08-31T13:12:47.976Z,4.67
2022-08-31T13:15:21.819Z,2.00
2022-08-31T13:17:48.911Z,3.17
2022-08-31T13:20:19.200Z,2.37
2022-08-31T13:22:49.112Z,3.30
2022-08-31T13:25:19.649Z,1.80
2022-08-31T13:27:48.741Z,2.60
2022-08-31T13:30:19.923Z,1.50
2022-08-31T13:32:50.021Z,3.00
2022-08-31T13:35:19.402Z,1.20
2022-08-31T13:37:52.851Z,3.73
2022-08-31T13:40:23.961Z,3.37
2022-08-31T13:42:56.956Z,1.53
2022-08-31T13:45:26.965Z,2.00
2022-08-31T13:48:02.097Z,2.00
2022-08-31T13:50:52.977Z,3.87
2022-08-31T13:53:40.094Z,3.50
2022-08-31T13:56:40.745Z,3.00
2022-08-31T13:59:17.861Z,1.80
2022-08-31T14:01:49.233Z,1.53
2022-08-31T14:04:44.261Z,1.80
2022-08-31T14:07:19.630Z,2.97
2022-08-31T14:09:47.955Z,2.87
2022-08-31T14:12:42.168Z,1.73
2022-08-31T14:15:15.373Z,2.00
2022-08-31T14:17:42.835Z,5.03
2022-08-31T14:20:34.056Z,2.07
2022-08-31T14:23:24.434Z,1.97
2022-08-31T14:25:53.072Z,2.10
2022-08-31T14:28:24.382Z,5.17
2022-08-31T14:30:51.678Z,2.47
2022-08-31T14:33:19.985Z,1.53
2022-08-31T14:35:47.298Z,1.60
2022-08-31T14:38:15.422Z,4.57
2022-08-31T14:40:43.972Z,2.63
2022-08-31T14:43:13.346Z,1.03
2022-08-31T14:45:44.520Z,1.80
2022-08-31T14:48:17.425Z,2.80
2022-08-31T14:50:44.552Z,1.80
2022-08-31T14:53:11.634Z,1.73
2022-08-31T14:55:40.714Z,2.30
2022-08-31T14:58:10.296Z,1.20
2022-08-31T15:00:51.219Z,3.40
2022-08-31T15:03:24.620Z,3.57
2022-08-31T15:05:51.577Z,2.57
2022-08-31T15:08:26.272Z,2.70
2022-08-31T15:11:06.355Z,3.23
2022-08-31T15:13:34.205Z,4.40
2022-08-31T15:16:04.253Z,3.93
2022-08-31T15:18:34.145Z,1.67
2022-08-31T15:21:02.409Z,4.37
2022-08-31T15:23:30.375Z,3.63
2022-08-31T15:26:04.316Z,3.90
2022-08-31T15:28:40.569Z,4.80
2022-08-31T15:31:20.297Z,2.73
2022-08-31T15:33:49.595Z,1.63
2022-08-31T15:36:18.541Z,1.53
2022-08-31T15:38:46.030Z,2.47
2022-08-31T15:41:13.227Z,1.50
2022-08-31T15:43:44.417Z,2.17
2022-08-31T15:46:14.270Z,1.70
2022-08-31T15:48:47.181Z,1.47
2022-08-31T15:51:27.983Z,2.63
2022-08-31T15:54:20.719Z,5.27
2022-08-31T15:56:44.202Z,1.10
2022-08-31T15:59:11.683Z,22.63
2022-08-31T16:01:39.418Z,13.50
2022-08-31T16:04:06.504Z,14.03
2022-08-31T16:06:35.026Z,13.60
2022-08-31T16:09:02.620Z,22.70
2022-08-31T16:11:31.341Z,14.30
2022-08-31T16:14:01.240Z,13.30
2022-08-31T16:16:29.896Z,11.60
2022-08-31T16:18:59.000Z,6.53
2022-08-31T16:21:26.899Z,18.07
2022-08-31T16:24:00.951Z,7.50
2022-08-31T16:26:34.103Z,5.00
2022-08-31T16:29:02.164Z,2.17
2022-08-31T16:31:30.095Z,3.07
2022-08-31T16:33:57.049Z,2.67
2022-08-31T16:36:25.317Z,3.10
2022-08-31T16:38:54.589Z,3.57
2022-08-31T16:41:30.689Z,3.93
2022-08-31T16:44:18.565Z,1.90
2022-08-31T16:46:45.869Z,3.33
2022-08-31T16:49:31.260Z,4.43
2022-08-31T16:51:58.542Z,6.83
2022-08-31T16:54:27.807Z,10.70
2022-08-31T16:56:57.922Z,6.13
2022-08-31T16:59:26.417Z,9.47
2022-08-31T17:01:53.584Z,18.93
2022-08-31T17:04:48.211Z,9.10
2022-08-31T17:07:10.880Z,3.00
2022-08-31T17:09:38.950Z,6.00
2022-08-31T17:12:12.892Z,3.97
2022-08-31T17:14:47.194Z,2.87
2022-08-31T17:17:19.090Z,4.07
2022-08-31T17:19:46.640Z,3.57
2022-08-31T17:22:22.521Z,7.47
2022-08-31T17:24:51.098Z,4.73
2022-08-31T17:27:20.299Z,4.87
2022-08-31T17:29:48.659Z,6.90
2022-08-31T17:32:17.379Z,7.03
2022-08-31T17:34:44.968Z,6.77
2022-08-31T17:37:15.426Z,7.07
2022-08-31T17:39:43.489Z,6.77
2022-08-31T17:42:11.085Z,10.53
2022-08-31T17:44:38.114Z,6.40
2022-08-31T17:47:05.748Z,11.80
2022-08-31T17:49:46.299Z,7.77
2022-08-31T17:52:13.863Z,7.77
2022-08-31T17:54:43.475Z,7.43
2022-08-31T17:57:12.653Z,8.53
2022-08-31T17:59:40.432Z,6.63
2022-08-31T18:02:12.684Z,3.90
2022-08-31T18:04:40.724Z,4.47
2022-08-31T18:07:11.871Z,5.23
2022-08-31T18:09:40.688Z,7.17
2022-08-31T18:12:07.809Z,18.23
2022-08-31T18:14:35.739Z,17.23
2022-08-31T18:17:04.005Z,8.50
2022-08-31T18:19:33.952Z,7.90
2022-08-31T18:22:01.189Z,10.13
2022-08-31T18:24:28.615Z,6.20
2022-08-31T18:26:56.917Z,9.70
2022-08-31T18:29:25.054Z,8.93
2022-08-31T18:31:54.218Z,6.30
2022-08-31T18:34:23.112Z,6.43
2022-08-31T18:36:50.973Z,13.83
2022-08-31T18:39:40.820Z,9.37
2022-08-31T18:42:27.147Z,11.73
2022-08-31T18:45:12.663Z,13.93
2022-08-31T18:47:39.628Z,11.57
2022-08-31T18:50:07.559Z,9.57
2022-08-31T18:52:40.349Z,14.77
2022-08-31T18:55:15.645Z,11.00
2022-08-31T18:57:48.855Z,9.60
2022-08-31T19:00:16.664Z,12.17
2022-08-31T19:02:44.059Z,14.43
2022-08-31T19:05:12.390Z,9.67
2022-08-31T19:07:41.436Z,7.00
2022-08-31T19:10:12.877Z,10.87
2022-08-31T19:12:42.921Z,8.20
2022-08-31T19:15:11.255Z,8.20
2022-08-31T19:17:40.273Z,9.10
2022-08-31T19:20:10.188Z,10.03
2022-08-31T19:22:37.974Z,6.63
2022-08-31T19:25:05.529Z,9.97
2022-08-31T19:27:35.290Z,4.57
2022-08-31T19:30:06.138Z,5.53
2022-08-31T19:32:34.147Z,8.27
2022-08-31T19:35:01.804Z,8.57
2022-08-31T19:37:28.737Z,6.13
2022-08-31T19:39:55.619Z,7.20
2022-08-31T19:42:40.140Z,6.37
2022-08-31T19:45:24.401Z,11.47
2022-08-31T19:47:51.880Z,7.93
2022-08-31T19:50:19.040Z,7.20
2022-08-31T19:52:46.651Z,7.83
2022-08-31T19:55:13.884Z,7.73
2022-08-31T19:57:43.620Z,10.70
2022-08-31T20:00:11.926Z,8.67
2022-08-31T20:02:42.522Z,9.97
2022-08-31T20:05:09.895Z,7.80
2022-08-31T20:07:36.847Z,12.63
2022-08-31T20:10:04.342Z,10.27
2022-08-31T20:12:31.413Z,9.97
2022-08-31T20:14:58.464Z,8.17
2022-08-31T20:17:25.625Z,9.80
2022-08-31T20:19:55.044Z,7.70
2022-08-31T20:22:23.981Z,7.53
2022-08-31T20:24:53.354Z,11.77
2022-08-31T20:27:20.312Z,6.70
2022-08-31T20:29:48.288Z,7.97
2022-08-31T20:32:15.565Z,7.40
2022-08-31T20:34:43.693Z,12.97
2022-08-31T20:37:10.841Z,11.67
2022-08-31T20:39:39.566Z,9.30
2022-08-31T20:42:07.911Z,7.13
2022-08-31T20:44:36.153Z,7.83
2022-08-31T20:47:25.980Z,15.40
2022-08-31T20:50:00.044Z,11.33
2022-08-31T20:52:32.124Z,9.07
2022-08-31T20:55:01.629Z,12.07
2022-08-31T20:57:30.573Z,10.17
2022-08-31T20:59:57.627Z,8.93
2022-08-31T21:02:24.832Z,12.20
2022-08-31T21:04:51.735Z,7.63
2022-08-31T21:07:19.299Z,8.60
2022-08-31T21:09:47.016Z,9.40
2022-08-31T21:12:18.079Z,8.85
2022-08-31T21:14:46.294Z,7.30
2022-08-31T21:17:14.345Z,8.07
2022-08-31T21:19:42.098Z,9.43
2022-08-31T21:22:10.581Z,8.30
2022-08-31T21:24:38.625Z,8.30
2022-08-31T21:27:07.049Z,9.27
2022-08-31T21:29:35.736Z,7.93
2022-08-31T21:32:04.203Z,8.47
2022-08-31T21:34:31.293Z,12.53
2022-08-31T21:36:58.151Z,12.80
2022-08-31T21:39:25.853Z,9.17
2022-08-31T21:41:52.981Z,8.10
2022-08-31T21:44:23.193Z,8.80
2022-08-31T21:46:50.979Z,9.00
2022-08-31T21:49:19.155Z,7.17
2022-08-31T21:51:49.954Z,11.70
2022-08-31T21:54:17.801Z,9.50
2022-08-31T21:56:46.073Z,9.10
2022-08-31T21:59:13.825Z,8.17
2022-08-31T22:01:41.124Z,7.60
2022-08-31T22:04:10.060Z,8.27
2022-08-31T22:06:37.681Z,10.20
2022-08-31T22:09:06.770Z,6.33
2022-08-31T22:11:37.481Z,5.80
2022-08-31T22:14:08.095Z,7.27
2022-08-31T22:16:37.614Z,8.47
2022-08-31T22:19:06.075Z,5.70
2022-08-31T22:21:34.733Z,6.67
2022-08-31T22:24:09.346Z,11.60
2022-08-31T22:26:38.312Z,6.90
2022-08-31T22:29:06.765Z,6.50
2022-08-31T22:31:36.253Z,8.70
2022-08-31T22:34:03.621Z,8.03
2022-08-31T22:36:34.669Z,9.27
2022-08-31T22:39:07.181Z,7.93
2022-08-31T22:41:37.555Z,6.33
2022-08-31T22:44:05.414Z,10.47
2022-08-31T22:46:32.558Z,6.67
2022-08-31T22:48:59.583Z,6.23
2022-08-31T22:51:26.535Z,10.90
2022-08-31T22:53:53.507Z,7.63
2022-08-31T22:56:20.591Z,10.10
2022-08-31T22:58:47.469Z,9.43
2022-08-31T23:01:25.239Z,8.70
2022-08-31T23:03:53.288Z,8.37
2022-08-31T23:06:20.932Z,4.90
2022-08-31T23:08:49.126Z,6.10
2022-08-31T23:11:18.846Z,7.40
2022-08-31T23:13:53.780Z,5.93
2022-08-31T23:16:25.212Z,7.63
2022-08-31T23:18:59.239Z,6.43
2022-08-31T23:21:27.944Z,10.60
2022-08-31T23:23:55.861Z,7.97
2022-08-31T23:26:28.037Z,5.37
2022-08-31T23:28:55.868Z,9.50
2022-08-31T23:31:22.992Z,6.97
2022-08-31T23:33:53.749Z,7.63
2022-08-31T23:36:24.232Z,8.83
2022-08-31T23:38:51.191Z,7.97
2022-08-31T23:41:21.199Z,8.70
2022-08-31T23:43:53.437Z,6.00
2022-08-31T23:46:20.837Z,7.83
2022-08-31T23:48:47.819Z,6.00
2022-08-31T23:51:15.940Z,7.13
2022-08-31T23:53:46.980Z,8.60
2022-08-31T23:56:14.693Z,11.13
2022-08-31T23:58:46.306Z,6.30
